Terminal Aerodrome Forecast
Issued by NWS

Home | Current Version | Previous Version | Text Only | Print | Product List | Glossary Off
Versions: 1 2 3 4 5 6 7 8 9 10 11 12 13 14 15 16 17 18 19 20 21 22

258
FTUS43 KBIS 280521
TAFDIK
TAF
KDIK 280521Z 2806/2906 06005KT P6SM SCT050
     FM281700 17005KT P6SM BKN050
     FM282100 24006KT P6SM -SHRA VCTS BKN070CB
     FM282300 28008KT P6SM -SHRA VCTS BKN060CB
     FM290000 30008KT P6SM BKN060=

USA.gov is the U.S. government's official web portal to all federal, state and local government web resources and services.